Airfield :
LOGIN :

Register | Disclaimer

   EN    FR    IT 

 










Legend :    VFR   Marginal VFR   IFR   Intensive IFR   Very Intensive IFR
Visi :
Ceiling :
>= 8 km
>= 3000ft
5 to 8 km
1000 to 3000 ft
1500m to 5 km
500 to 1000 ft
800 to 1500m
200 to 500 ft
< 800m
< 200 ft
Symbols :   Thunderstorms  Fog  Heavy snow  Heavy precipitations  Wind > 20 kt
SIGMETs :     Misc.  Thunderstorms  Icing  Turbulence  Mountain Waves  Volcanic Ashes






- Airport Elevation : 405 ft
- IATA code : ODH


EGVO - RAF Odiham

CURRENT METAR :
  • 081750Z 20003KT CAVOK 20/09 Q1022 NOSIG RMK BLU BLU

EXPIRED METARs :
  • 081720Z 21003KT CAVOK 21/09 Q1022 NOSIG RMK BLU BLU
  • 081650Z 23002KT CAVOK 21/09 Q1022 NOSIG RMK BLU BLU
  • 081620Z 09002KT CAVOK 21/10 Q1022 NOSIG RMK BLU BLU
  • 081550Z 12003KT CAVOK 22/09 Q1022 NOSIG RMK BLU BLU
  • 081520Z 14005KT CAVOK 21/07 Q1022 NOSIG RMK BLU BLU
  • 081450Z 09005KT CAVOK 21/09 Q1023 NOSIG RMK BLU BLU

TAF TAF EGVO
Valid from the 08 at 18:00 until the 09 at 06:00 UTC


081625Z 0818/0906 08003KT CAVOK
PROB40 0822/0824 5000 HZ
BECMG 0900/0903 5000 HZ
PROB30 0902/0906 2000 BR



MET'MAP, your aeronautical weather chart ! - Copyright ORBIFLY December 2007 - Disclaimer

ORBIFLY MET'MAP TEAM :

Programming & Development : Alexandra Zaïnal
Concept & original design : Baudouin d'Aumeries
Assistance for programming : Marc-Olivier Méhu
Technical & hardware support : Manuel Goepfert

Contact : metmap@orbifly.com




SOURCES & CREDITS :

   NOAA